Time;durP1;ratioP1;P1;durP2;ratioP2;P2;SDS_P1;SDS_P2;PMS_P1;PMS_P2;Temp;Humidity;BMP_temperature;BMP_pressure;BME280_temperature;BME280_humidity;BME280_pressure;Samples;Min_cycle;Max_cycle;Signal;HPM_P1;HPM_P2
2023/05/20 00:01:03;;;;;;;5.63;4.00;;;;;;;12.57;100.00;98203.50;5095390;28;20610;-72
2023/05/20 00:03:30;;;;;;;7.10;4.10;;;;;;;12.57;100.00;98206.97;5094943;28;20200;-72
2023/05/20 00:05:56;;;;;;;5.50;3.67;;;;;;;12.53;100.00;98211.13;5095074;28;20225;-72
2023/05/20 00:08:22;;;;;;;6.20;3.90;;;;;;;12.48;100.00;98207.53;5094871;28;20686;-72
2023/05/20 00:10:49;;;;;;;6.23;4.17;;;;;;;12.51;100.00;98209.72;5094836;28;20694;-72
2023/05/20 00:13:16;;;;;;;4.20;3.80;;;;;;;12.48;100.00;98208.34;5094839;28;20685;-72
2023/05/20 00:15:42;;;;;;;5.00;3.80;;;;;;;12.53;100.00;98208.47;5094583;28;20821;-72
2023/05/20 00:18:09;;;;;;;5.00;4.10;;;;;;;12.58;100.00;98194.47;5095105;28;20553;-71
2023/05/20 00:20:35;;;;;;;6.57;3.93;;;;;;;12.59;100.00;98199.56;5095022;28;20218;-72
2023/05/20 00:23:01;;;;;;;5.43;3.70;;;;;;;12.54;100.00;98196.78;5094606;28;20679;-72
2023/05/20 00:25:30;;;;;;;5.53;4.10;;;;;;;12.59;100.00;98202.25;5094435;28;20235;-72
2023/05/20 00:27:56;;;;;;;5.00;4.40;;;;;;;12.52;100.00;98204.19;5094750;28;20205;-72
2023/05/20 00:30:22;;;;;;;4.50;3.60;;;;;;;12.55;100.00;98195.72;5094775;28;20206;-72
2023/05/20 00:32:49;;;;;;;4.13;3.70;;;;;;;12.54;100.00;98188.78;5094427;28;20207;-72
2023/05/20 00:35:15;;;;;;;5.77;3.90;;;;;;;12.57;100.00;98190.19;5094615;28;20206;-72
2023/05/20 00:37:42;;;;;;;6.77;3.97;;;;;;;12.61;100.00;98196.69;5094721;28;20220;-72
2023/05/20 00:40:08;;;;;;;6.33;4.23;;;;;;;12.61;100.00;98194.00;5094623;28;20205;-72
2023/05/20 00:42:35;;;;;;;6.27;4.13;;;;;;;12.53;100.00;98192.47;5094550;28;20243;-72
2023/05/20 00:45:01;;;;;;;7.50;3.90;;;;;;;12.57;100.00;98193.63;5094298;28;20220;-72
2023/05/20 00:47:30;;;;;;;5.80;3.93;;;;;;;12.52;100.00;98190.84;5094509;28;20207;-72
2023/05/20 00:49:57;;;;;;;4.50;4.10;;;;;;;12.48;100.00;98192.34;5094416;28;20210;-72
2023/05/20 00:52:24;;;;;;;6.00;4.10;;;;;;;12.50;100.00;98195.59;5094026;28;20605;-72
2023/05/20 00:54:51;;;;;;;4.70;4.00;;;;;;;12.55;100.00;98187.72;5093940;28;20660;-72
2023/05/20 00:57:19;;;;;;;6.47;3.90;;;;;;;12.42;100.00;98195.91;5094245;28;20265;-72
2023/05/20 00:59:46;;;;;;;6.53;4.10;;;;;;;12.47;100.00;98184.56;5093954;28;20671;-71
2023/05/20 01:02:12;;;;;;;5.27;4.13;;;;;;;12.41;100.00;98193.47;5094294;28;20211;-72
2023/05/20 01:04:39;;;;;;;5.43;3.93;;;;;;;12.43;100.00;98186.06;5093777;28;20686;-72
2023/05/20 01:07:06;;;;;;;5.27;3.67;;;;;;;12.49;100.00;98190.50;5093069;28;20749;-72
2023/05/20 01:09:33;;;;;;;6.60;4.30;;;;;;;12.47;100.00;98180.03;5076308;28;20209;-71
2023/05/20 01:12:15;;;;;;;4.97;4.13;;;;;;;12.50;100.00;98187.59;5093970;28;20204;-72
2023/05/20 01:14:57;;;;;;;4.10;3.70;;;;;;;12.45;100.00;98182.16;5093750;28;20529;-72
2023/05/20 01:17:26;;;;;;;5.60;4.13;;;;;;;12.43;100.00;98184.22;5093719;28;20217;-71
2023/05/20 01:19:55;;;;;;;5.20;4.13;;;;;;;12.40;100.00;98176.69;5094020;28;20611;-71
2023/05/20 01:22:28;;;;;;;4.30;3.90;;;;;;;12.49;100.00;98182.50;5093457;28;20655;-71
2023/05/20 01:24:54;;;;;;;5.17;4.20;;;;;;;12.48;100.00;98179.00;5093790;28;20239;-71
2023/05/20 01:27:22;;;;;;;4.27;3.80;;;;;;;12.52;100.00;98168.72;5093833;28;20224;-71
2023/05/20 01:29:53;;;;;;;5.97;3.90;;;;;;;12.48;100.00;98176.34;5093479;28;20205;-71
2023/05/20 01:32:22;;;;;;;4.80;3.87;;;;;;;12.52;100.00;98174.84;5093580;28;20260;-71
2023/05/20 01:34:50;;;;;;;4.77;4.03;;;;;;;12.49;100.00;98172.66;5093569;28;20200;-71
2023/05/20 01:37:19;;;;;;;4.37;3.80;;;;;;;12.51;100.00;98167.06;5093477;28;20232;-71
2023/05/20 01:39:47;;;;;;;5.13;3.60;;;;;;;12.59;100.00;98164.06;5093280;28;20677;-71
2023/05/20 01:42:15;;;;;;;4.67;3.60;;;;;;;12.52;100.00;98163.38;5093459;28;20213;-71
2023/05/20 01:44:42;;;;;;;7.57;3.77;;;;;;;12.46;100.00;98159.75;5093033;28;20722;-71
2023/05/20 01:47:08;;;;;;;3.80;3.40;;;;;;;12.42;100.00;98163.94;5093353;28;20223;-71
2023/05/20 01:49:35;;;;;;;5.80;4.00;;;;;;;12.39;100.00;98166.25;5093362;28;20207;-72
2023/05/20 01:52:01;;;;;;;6.63;4.03;;;;;;;12.42;100.00;98163.94;5093365;28;20233;-72
2023/05/20 01:54:27;;;;;;;7.20;4.07;;;;;;;12.41;100.00;98162.31;5093132;28;20295;-72
2023/05/20 01:56:54;;;;;;;4.23;3.80;;;;;;;12.40;100.00;98163.34;5093102;28;20707;-71
2023/05/20 01:59:20;;;;;;;4.40;3.97;;;;;;;12.42;100.00;98168.44;5093378;28;20568;-71
2023/05/20 02:01:46;;;;;;;4.83;4.07;;;;;;;12.49;100.00;98167.31;5093127;28;20666;-71
2023/05/20 02:04:13;;;;;;;4.27;3.70;;;;;;;12.53;100.00;98171.13;5093302;28;20228;-71
2023/05/20 02:06:39;;;;;;;5.70;4.37;;;;;;;12.53;100.00;98163.13;5092966;28;20709;-71
2023/05/20 02:09:06;;;;;;;4.40;3.73;;;;;;;12.49;100.00;98164.66;5093008;28;20214;-71
2023/05/20 02:11:32;;;;;;;6.57;3.80;;;;;;;12.44;100.00;98159.16;5092917;28;20681;-71
2023/05/20 02:13:59;;;;;;;4.30;3.83;;;;;;;12.39;100.00;98158.25;5093217;28;20213;-71
2023/05/20 02:16:25;;;;;;;3.73;3.43;;;;;;;12.50;100.00;98158.28;5092910;28;20238;-71
2023/05/20 02:18:51;;;;;;;5.33;3.93;;;;;;;12.51;100.00;98151.88;5095035;28;20205;-71
2023/05/20 02:21:18;;;;;;;4.13;3.27;;;;;;;12.47;100.00;98157.88;5097139;28;20251;-71
2023/05/20 02:23:45;;;;;;;4.80;3.40;;;;;;;12.49;100.00;98147.81;5096732;28;20567;-71
2023/05/20 02:26:11;;;;;;;4.20;3.33;;;;;;;12.43;100.00;98159.41;5096636;28;20223;-71
2023/05/20 02:28:42;;;;;;;4.37;3.97;;;;;;;12.45;100.00;98155.47;5096602;28;20565;-71
2023/05/20 02:31:08;;;;;;;3.97;3.57;;;;;;;12.45;100.00;98162.66;5096895;28;20215;-71
2023/05/20 02:33:35;;;;;;;4.07;3.60;;;;;;;12.38;100.00;98159.28;5097267;28;20206;-71
2023/05/20 02:36:01;;;;;;;4.10;3.70;;;;;;;12.25;100.00;98149.59;5096763;28;20244;-71
2023/05/20 02:38:27;;;;;;;7.10;3.90;;;;;;;12.23;100.00;98162.38;5097482;28;20201;-71
2023/05/20 02:40:55;;;;;;;5.87;3.83;;;;;;;12.26;100.00;98153.09;5096771;28;20210;-71
2023/05/20 02:43:22;;;;;;;3.70;3.40;;;;;;;12.17;100.00;98163.25;5096894;28;20210;-73
2023/05/20 02:45:48;;;;;;;4.80;4.07;;;;;;;12.16;100.00;98164.28;5096652;28;20596;-72
2023/05/20 02:48:15;;;;;;;4.50;3.73;;;;;;;12.16;100.00;98158.16;5096456;28;20673;-71
2023/05/20 02:50:41;;;;;;;5.87;4.10;;;;;;;12.18;100.00;98156.91;5096375;28;20214;-71
2023/05/20 02:53:07;;;;;;;3.93;3.53;;;;;;;12.14;100.00;98158.38;5096279;28;20211;-71
2023/05/20 02:55:35;;;;;;;4.77;3.70;;;;;;;12.07;100.00;98152.31;5096181;28;20712;-71
2023/05/20 02:58:02;;;;;;;5.23;3.50;;;;;;;12.17;100.00;98162.44;5096337;28;20266;-71
2023/05/20 03:00:30;;;;;;;4.07;3.63;;;;;;;12.06;100.00;98161.38;5095898;28;20200;-71
2023/05/20 03:02:57;;;;;;;4.27;3.87;;;;;;;12.09;100.00;98157.44;5096371;28;20210;-71
2023/05/20 03:05:24;;;;;;;5.60;4.30;;;;;;;11.99;100.00;98158.00;5096201;28;20228;-71
2023/05/20 03:07:50;;;;;;;4.67;3.90;;;;;;;12.04;100.00;98167.97;5096314;28;20209;-71
2023/05/20 03:10:16;;;;;;;4.23;3.67;;;;;;;12.02;100.00;98162.06;5095991;28;20208;-71
2023/05/20 03:12:43;;;;;;;4.13;3.73;;;;;;;12.03;100.00;98161.00;5096101;28;20205;-71
2023/05/20 03:15:10;;;;;;;5.13;4.10;;;;;;;12.11;100.00;98163.38;5096164;28;20201;-71
2023/05/20 03:17:36;;;;;;;4.83;4.00;;;;;;;12.01;100.00;98165.72;5095807;28;20307;-71
2023/05/20 03:20:06;;;;;;;4.27;3.93;;;;;;;11.97;100.00;98160.03;5096150;28;20215;-71
2023/05/20 03:22:32;;;;;;;5.23;4.03;;;;;;;12.03;100.00;98161.00;5095817;28;20214;-71
2023/05/20 03:24:59;;;;;;;4.47;4.03;;;;;;;11.92;100.00;98156.41;5095438;28;20719;-72
2023/05/20 03:27:26;;;;;;;4.70;3.77;;;;;;;11.92;100.00;98161.75;5095692;28;20207;-71
2023/05/20 03:29:53;;;;;;;5.47;3.83;;;;;;;11.92;100.00;98159.91;5095000;28;20313;-71
2023/05/20 03:32:20;;;;;;;4.73;4.13;;;;;;;11.88;100.00;98155.25;5095787;28;20290;-71
2023/05/20 03:34:46;;;;;;;4.63;4.23;;;;;;;11.89;100.00;98151.56;5095570;28;20201;-71
2023/05/20 03:37:13;;;;;;;3.90;3.50;;;;;;;11.93;100.00;98152.75;5095579;28;20231;-71
2023/05/20 03:39:39;;;;;;;5.03;4.00;;;;;;;11.84;100.00;98154.09;5095753;28;20215;-72
2023/05/20 03:42:06;;;;;;;4.93;4.30;;;;;;;11.84;100.00;98154.88;5095411;28;20210;-72
2023/05/20 03:44:32;;;;;;;4.40;4.03;;;;;;;11.75;100.00;98150.09;5095452;28;20207;-72
2023/05/20 03:46:59;;;;;;;4.83;4.10;;;;;;;11.74;100.00;98156.44;5095330;28;20312;-72
2023/05/20 03:49:25;;;;;;;4.27;3.87;;;;;;;11.76;100.00;98167.72;5095416;28;20209;-72
2023/05/20 03:51:51;;;;;;;4.77;3.97;;;;;;;11.73;100.00;98171.63;5095322;28;20205;-72
2023/05/20 03:54:18;;;;;;;4.83;4.07;;;;;;;11.78;100.00;98162.94;5095331;28;20210;-72
2023/05/20 03:56:45;;;;;;;4.70;4.20;;;;;;;11.76;100.00;98168.50;5095194;28;20223;-72
2023/05/20 03:59:12;;;;;;;7.17;4.23;;;;;;;11.87;100.00;98172.25;5095015;28;20689;-72
2023/05/20 04:01:38;;;;;;;4.67;3.73;;;;;;;11.83;100.00;98169.25;5095342;28;20285;-72
2023/05/20 04:04:05;;;;;;;5.27;3.77;;;;;;;11.84;100.00;98164.75;5095294;28;20250;-72
2023/05/20 04:06:32;;;;;;;4.63;4.20;;;;;;;11.83;100.00;98163.91;5094705;28;20588;-72
2023/05/20 04:08:59;;;;;;;5.60;4.00;;;;;;;11.89;100.00;98163.00;5094809;28;20667;-72
2023/05/20 04:11:25;;;;;;;5.07;4.00;;;;;;;11.90;100.00;98162.00;5095127;28;20238;-72
2023/05/20 04:13:52;;;;;;;4.57;4.00;;;;;;;11.86;100.00;98160.00;5095040;28;20291;-72
2023/05/20 04:16:18;;;;;;;6.03;4.33;;;;;;;11.87;100.00;98162.44;5095349;28;20238;-72
2023/05/20 04:18:47;;;;;;;4.30;3.90;;;;;;;11.95;100.00;98161.31;5095184;28;20310;-72
2023/05/20 04:21:13;;;;;;;4.73;4.10;;;;;;;11.89;100.00;98163.00;5095003;28;20298;-72
2023/05/20 04:23:40;;;;;;;4.43;4.03;;;;;;;11.97;100.00;98162.72;5094698;28;20736;-71
2023/05/20 04:26:06;;;;;;;5.60;4.13;;;;;;;11.92;100.00;98161.75;5094557;28;20264;-71
2023/05/20 04:28:32;;;;;;;3.93;3.53;;;;;;;11.99;100.00;98154.50;5094611;28;20207;-71
2023/05/20 04:31:03;;;;;;;4.30;3.90;;;;;;;12.02;100.00;98159.38;5094259;28;20668;-71
2023/05/20 04:33:29;;;;;;;5.00;3.70;;;;;;;12.04;100.00;98157.28;5094963;28;20200;-71
2023/05/20 04:35:57;;;;;;;4.23;3.83;;;;;;;12.11;100.00;98155.38;5094096;28;20712;-71
2023/05/20 04:38:28;;;;;;;4.10;3.70;;;;;;;12.17;100.00;98133.13;5094645;28;20253;-71
2023/05/20 04:40:59;;;;;;;5.43;4.00;;;;;;;12.18;100.00;98138.25;5094125;28;20588;-72
2023/05/20 04:43:28;;;;;;;4.27;3.87;;;;;;;12.22;100.00;98128.75;5093744;28;20223;-72
2023/05/20 04:45:58;;;;;;;5.80;4.50;;;;;;;12.21;100.00;98136.97;5094037;28;20703;-72
2023/05/20 04:48:25;;;;;;;5.03;3.87;;;;;;;12.07;100.00;98139.00;5094283;28;20210;-71
2023/05/20 04:50:53;;;;;;;4.63;4.03;;;;;;;12.04;100.00;98144.81;5094401;28;20206;-73
2023/05/20 04:53:20;;;;;;;6.27;4.30;;;;;;;12.14;100.00;98145.06;5094274;28;20203;-71
2023/05/20 04:55:48;;;;;;;4.97;4.47;;;;;;;12.12;100.00;98138.34;5094066;28;20219;-71
2023/05/20 04:58:16;;;;;;;4.67;3.87;;;;;;;12.19;100.00;98136.38;5094062;28;20208;-72
2023/05/20 05:00:43;;;;;;;6.00;4.37;;;;;;;12.26;100.00;98139.78;5094141;28;20214;-71
2023/05/20 05:03:11;;;;;;;4.00;3.67;;;;;;;12.27;100.00;98138.72;5093998;28;20248;-71
2023/05/20 05:05:39;;;;;;;4.30;3.90;;;;;;;12.38;100.00;98149.41;5093642;28;20238;-71
2023/05/20 05:08:06;;;;;;;4.67;4.03;;;;;;;12.41;100.00;98145.47;5094880;28;20205;-71
2023/05/20 05:10:33;;;;;;;4.00;3.70;;;;;;;12.51;100.00;98146.56;5094065;28;20216;-71
2023/05/20 05:13:00;;;;;;;5.93;4.03;;;;;;;12.42;100.00;98145.25;5093638;28;20215;-71
2023/05/20 05:15:26;;;;;;;4.57;4.07;;;;;;;12.52;100.00;98148.19;5093680;28;20223;-71
2023/05/20 05:17:53;;;;;;;4.60;4.20;;;;;;;12.58;100.00;98141.13;5093913;28;20199;-71
2023/05/20 05:20:19;;;;;;;4.53;4.13;;;;;;;12.68;100.00;98139.53;5093902;28;20316;-71
2023/05/20 05:22:46;;;;;;;5.53;4.00;;;;;;;12.76;100.00;98138.38;5093816;28;20204;-71
2023/05/20 05:25:13;;;;;;;5.07;4.63;;;;;;;12.83;100.00;98139.88;5093699;28;20314;-72
2023/05/20 05:27:40;;;;;;;5.33;4.30;;;;;;;12.88;100.00;98123.97;5093915;28;20206;-72
2023/05/20 05:30:07;;;;;;;4.47;4.07;;;;;;;12.99;100.00;98135.75;5093454;28;20265;-72
2023/05/20 05:32:34;;;;;;;6.30;4.17;;;;;;;13.02;100.00;98124.63;5093326;28;20210;-72
2023/05/20 05:35:00;;;;;;;5.03;4.47;;;;;;;13.12;100.00;98122.97;5093187;28;20697;-72
2023/05/20 05:37:27;;;;;;;4.50;4.10;;;;;;;13.18;100.00;98124.72;5093157;28;20207;-72
2023/05/20 05:39:53;;;;;;;5.13;4.10;;;;;;;13.19;100.00;98126.34;5093380;28;20204;-72
2023/05/20 05:42:20;;;;;;;5.17;4.67;;;;;;;13.30;100.00;98120.16;5093239;28;20264;-72
2023/05/20 05:44:46;;;;;;;6.30;4.30;;;;;;;13.29;100.00;98121.22;5093155;28;20551;-72
2023/05/20 05:47:12;;;;;;;4.73;4.23;;;;;;;13.49;100.00;98110.97;5093488;28;20230;-72
2023/05/20 05:49:39;;;;;;;4.83;4.43;;;;;;;13.60;100.00;98109.28;5093138;28;20215;-72
2023/05/20 05:52:05;;;;;;;4.53;4.13;;;;;;;13.64;100.00;98105.94;5093367;28;20211;-72
2023/05/20 05:54:32;;;;;;;5.17;4.67;;;;;;;13.81;100.00;98114.00;5096144;28;20203;-72
2023/05/20 05:56:58;;;;;;;4.27;3.97;;;;;;;13.87;100.00;98110.38;5097533;28;20243;-72
2023/05/20 05:59:24;;;;;;;5.00;4.53;;;;;;;13.89;100.00;98113.63;5097401;28;20215;-72
2023/05/20 06:01:51;;;;;;;5.40;4.40;;;;;;;13.84;100.00;98116.22;5096783;28;20572;-72
2023/05/20 06:04:17;;;;;;;4.97;4.37;;;;;;;13.96;100.00;98119.63;5097443;28;20218;-72
2023/05/20 06:06:43;;;;;;;4.63;4.23;;;;;;;14.20;100.00;98105.13;5097300;28;20230;-72
2023/05/20 06:09:10;;;;;;;4.70;4.30;;;;;;;14.45;100.00;98111.75;5097201;28;20290;-72
2023/05/20 06:11:36;;;;;;;4.83;4.13;;;;;;;14.67;100.00;98115.34;5097136;28;20673;-72
2023/05/20 06:14:03;;;;;;;4.57;4.13;;;;;;;14.71;100.00;98113.81;5097170;28;20200;-72
2023/05/20 06:16:29;;;;;;;5.40;4.47;;;;;;;14.89;100.00;98118.09;5096877;28;20238;-72
2023/05/20 06:18:56;;;;;;;5.43;4.40;;;;;;;14.95;100.00;98107.22;5097324;28;20200;-72
2023/05/20 06:21:23;;;;;;;4.30;3.90;;;;;;;15.01;100.00;98097.41;5097034;28;20666;-72
2023/05/20 06:23:49;;;;;;;4.80;4.40;;;;;;;14.96;100.00;98095.44;5097238;28;20208;-72
2023/05/20 06:26:15;;;;;;;5.00;4.50;;;;;;;15.18;100.00;98104.34;5097021;28;20234;-72
2023/05/20 06:28:42;;;;;;;5.47;4.47;;;;;;;15.09;100.00;98099.63;5097061;28;20203;-72
2023/05/20 06:31:08;;;;;;;5.07;4.57;;;;;;;14.89;100.00;98104.72;5096954;28;20215;-72
2023/05/20 06:33:35;;;;;;;5.90;4.70;;;;;;;14.87;100.00;98104.13;5096719;28;20616;-72
2023/05/20 06:36:01;;;;;;;5.00;4.60;;;;;;;14.95;100.00;98099.19;5096528;28;20582;-73
2023/05/20 06:38:28;;;;;;;5.27;4.77;;;;;;;15.10;100.00;98096.72;5096994;28;20207;-73
2023/05/20 06:40:54;;;;;;;5.30;4.90;;;;;;;14.87;100.00;98096.09;5096942;28;20203;-73
2023/05/20 06:43:20;;;;;;;4.97;4.47;;;;;;;14.77;100.00;98086.06;5096467;28;20663;-73
2023/05/20 06:45:47;;;;;;;6.03;4.77;;;;;;;14.73;100.00;98094.81;5096317;28;20607;-73
2023/05/20 06:48:13;;;;;;;7.20;4.97;;;;;;;14.93;100.00;98098.59;5096752;28;20207;-73
2023/05/20 06:50:40;;;;;;;5.57;4.70;;;;;;;15.21;100.00;98084.28;5096811;28;20204;-73
2023/05/20 06:53:06;;;;;;;5.03;4.63;;;;;;;14.99;100.00;98081.56;5096382;28;20569;-73
2023/05/20 06:55:32;;;;;;;5.63;5.20;;;;;;;15.03;100.00;98077.34;5096614;28;20223;-73
2023/05/20 06:57:59;;;;;;;5.27;4.77;;;;;;;15.08;100.00;98081.97;5096627;28;20207;-73
2023/05/20 07:00:25;;;;;;;5.13;4.67;;;;;;;15.09;100.00;98086.25;5096475;28;20203;-73
2023/05/20 07:02:51;;;;;;;5.27;4.77;;;;;;;15.19;100.00;98084.53;5096306;28;20203;-73
2023/05/20 07:05:18;;;;;;;5.30;4.80;;;;;;;15.27;100.00;98080.59;5095094;28;20203;-73
2023/05/20 07:07:44;;;;;;;5.13;4.63;;;;;;;15.07;100.00;98078.47;5096329;28;20294;-73
2023/05/20 07:10:10;;;;;;;5.50;5.00;;;;;;;15.17;100.00;98070.59;5096001;28;20208;-73
2023/05/20 07:12:37;;;;;;;5.30;4.77;;;;;;;15.13;100.00;98069.47;5096261;28;20551;-73
2023/05/20 07:15:03;;;;;;;6.63;4.50;;;;;;;15.22;100.00;98067.97;5095704;28;20781;-73
2023/05/20 07:17:30;;;;;;;5.13;4.60;;;;;;;15.28;100.00;98061.63;5095672;28;20223;-73
2023/05/20 07:19:56;;;;;;;4.97;4.47;;;;;;;15.46;100.00;98053.31;5095732;28;20682;-73
2023/05/20 07:22:22;;;;;;;5.50;5.00;;;;;;;15.76;100.00;98045.63;5095999;28;20199;-73
2023/05/20 07:24:49;;;;;;;5.00;4.60;;;;;;;15.61;100.00;98050.78;5095914;28;20208;-73
2023/05/20 07:27:15;;;;;;;5.30;4.80;;;;;;;15.74;100.00;98045.03;5095470;28;20231;-73
2023/05/20 07:29:41;;;;;;;5.50;5.00;;;;;;;15.99;100.00;98049.88;5095629;28;20208;-73
2023/05/20 07:32:08;;;;;;;4.80;4.40;;;;;;;16.10;99.30;98038.97;5095845;28;20207;-73
2023/05/20 07:34:35;;;;;;;4.93;4.53;;;;;;;16.36;100.00;98043.50;5095516;28;20211;-73
2023/05/20 07:37:01;;;;;;;6.87;4.60;;;;;;;16.57;99.25;98047.19;5095213;28;20702;-73
2023/05/20 07:39:27;;;;;;;6.17;4.80;;;;;;;16.52;95.61;98044.47;5095843;28;20206;-73
2023/05/20 07:41:54;;;;;;;4.60;4.20;;;;;;;16.59;99.31;98053.94;5095561;28;20215;-73
2023/05/20 07:44:22;;;;;;;5.63;4.60;;;;;;;16.65;99.16;98044.03;5095655;28;20215;-73
2023/05/20 07:46:48;;;;;;;5.53;4.50;;;;;;;16.71;96.02;98041.13;5095534;28;20277;-73
2023/05/20 07:49:14;;;;;;;5.20;4.70;;;;;;;16.69;95.92;98042.47;5095620;28;20207;-73
2023/05/20 07:51:41;;;;;;;5.10;4.70;;;;;;;16.49;95.75;98035.06;5095241;28;20211;-73
2023/05/20 07:54:07;;;;;;;5.07;4.67;;;;;;;16.44;95.76;98034.22;5095537;28;20203;-73
2023/05/20 07:56:34;;;;;;;8.43;5.07;;;;;;;16.54;98.89;98028.91;5095316;28;20219;-73
2023/05/20 07:59:02;;;;;;;5.20;4.70;;;;;;;16.55;96.67;98036.72;5095154;28;20329;-73
2023/05/20 08:01:29;;;;;;;6.07;5.13;;;;;;;16.31;98.06;98040.78;5095166;28;20214;-73
2023/05/20 08:03:55;;;;;;;5.33;4.93;;;;;;;16.17;99.46;98034.22;5095185;28;20207;-73
2023/05/20 08:06:23;;;;;;;5.40;4.90;;;;;;;16.30;99.06;98028.44;5095139;28;20276;-73
2023/05/20 08:08:49;;;;;;;5.17;4.73;;;;;;;16.32;98.72;98026.31;5094900;28;20303;-73
2023/05/20 08:11:16;;;;;;;5.60;5.10;;;;;;;16.65;96.29;98028.72;5094717;28;20689;-73
2023/05/20 08:13:42;;;;;;;5.80;5.30;;;;;;;16.55;97.33;98031.34;5094594;28;20653;-73
2023/05/20 08:16:08;;;;;;;5.13;4.63;;;;;;;16.59;97.71;98032.44;5094127;28;20752;-73
2023/05/20 08:18:36;;;;;;;5.97;5.00;;;;;;;16.65;97.07;98031.41;5094761;28;20299;-73
2023/05/20 08:21:03;;;;;;;5.60;5.10;;;;;;;16.55;97.87;98025.97;5094582;28;20574;-73
2023/05/20 08:23:30;;;;;;;4.67;4.27;;;;;;;16.61;96.43;98038.34;5094903;28;20204;-73
2023/05/20 08:26:00;;;;;;;5.07;4.57;;;;;;;16.51;98.49;98040.19;5094690;28;20239;-73
2023/05/20 08:28:26;;;;;;;6.10;4.50;;;;;;;16.47;97.90;98045.22;5094762;28;20188;-73
2023/05/20 08:30:53;;;;;;;5.30;4.80;;;;;;;16.45;94.86;98046.56;5095189;28;20200;-73
2023/05/20 08:33:20;;;;;;;5.50;4.90;;;;;;;16.41;95.50;98042.75;5094461;28;20667;-73
2023/05/20 08:35:47;;;;;;;6.10;5.17;;;;;;;16.40;96.61;98050.03;5094474;28;20314;-73
2023/05/20 08:38:14;;;;;;;6.83;4.70;;;;;;;16.21;94.47;98045.25;5094144;28;20200;-73
2023/05/20 08:40:40;;;;;;;4.83;4.43;;;;;;;16.36;94.81;98038.16;5094242;28;20211;-73
2023/05/20 08:43:07;;;;;;;4.93;4.53;;;;;;;16.40;96.46;98038.47;5087686;28;20564;-77
2023/05/20 08:45:36;;;;;;;5.30;4.80;;;;;;;16.50;94.72;98039.38;5091276;28;20228;-77
2023/05/20 08:48:04;;;;;;;4.67;4.30;;;;;;;16.37;95.69;98045.13;5095448;28;20231;-76
2023/05/20 08:50:31;;;;;;;5.13;4.63;;;;;;;16.37;94.45;98052.38;5094888;28;20696;-77
2023/05/20 08:52:59;;;;;;;8.67;5.10;;;;;;;16.50;94.75;98044.72;5094030;28;20562;-76
2023/05/20 08:55:30;;;;;;;6.40;4.83;;;;;;;16.54;99.07;98043.16;5094243;28;20223;-76
2023/05/20 08:57:57;;;;;;;4.90;4.47;;;;;;;16.63;93.11;98046.97;5076647;28;20200;-76
2023/05/20 09:00:27;;;;;;;5.20;4.67;;;;;;;16.82;95.69;98042.81;5093790;28;20667;-76
2023/05/20 09:02:55;;;;;;;7.57;5.00;;;;;;;17.08;91.57;98041.09;5081552;28;20200;-76
2023/05/20 09:05:22;;;;;;;5.27;4.87;;;;;;;17.15;90.17;98042.47;5073362;28;20715;-76
2023/05/20 09:07:49;;;;;;;5.33;4.83;;;;;;;17.18;87.88;98031.22;5073491;28;20220;-73
2023/05/20 09:10:15;;;;;;;6.97;4.83;;;;;;;17.39;87.57;98030.28;5073402;28;20664;-72
2023/05/20 09:12:41;;;;;;;5.83;4.83;;;;;;;17.69;88.76;98024.97;5073439;28;20238;-72
2023/05/20 09:15:08;;;;;;;5.30;4.80;;;;;;;17.60;86.16;98028.47;5073331;28;20212;-73
2023/05/20 09:17:36;;;;;;;4.97;4.43;;;;;;;17.37;86.27;98023.50;5073265;28;20208;-72
2023/05/20 09:20:09;;;;;;;5.20;4.43;;;;;;;17.70;89.72;98029.31;5073632;28;20254;-72
2023/05/20 09:22:36;;;;;;;5.23;4.60;;;;;;;17.86;86.81;98017.50;5073357;28;20636;-72
2023/05/20 09:25:03;;;;;;;5.07;4.67;;;;;;;18.12;85.78;98019.16;5073431;28;20208;-72
2023/05/20 09:27:29;;;;;;;4.90;4.50;;;;;;;17.80;83.12;98013.19;5072876;28;20600;-72
2023/05/20 09:29:56;;;;;;;4.60;4.20;;;;;;;17.89;85.78;98014.28;5073239;28;20554;-72
2023/05/20 09:32:26;;;;;;;4.97;4.57;;;;;;;17.93;85.41;98020.75;5072974;28;20212;-72
2023/05/20 09:34:53;;;;;;;5.40;4.90;;;;;;;18.03;83.42;98018.06;5090391;28;20204;-72
2023/05/20 09:37:21;;;;;;;4.30;4.00;;;;;;;17.93;83.99;98017.25;5093612;28;20219;-72
2023/05/20 09:40:01;;;;;;;5.43;4.83;;;;;;;18.47;79.06;98010.31;5093206;28;20200;-72
2023/05/20 09:42:35;;;;;;;5.10;4.60;;;;;;;18.34;79.90;98018.94;5091599;28;20654;-72
2023/05/20 09:45:03;;;;;;;5.20;4.77;;;;;;;18.50;81.80;98009.78;5091329;28;20749;-72
2023/05/20 09:47:30;;;;;;;5.10;4.70;;;;;;;18.64;80.70;98011.66;5093185;28;20223;-72
2023/05/20 09:49:57;;;;;;;5.43;4.40;;;;;;;18.77;83.49;98003.00;5093445;28;20204;-72
2023/05/20 09:52:24;;;;;;;5.17;4.73;;;;;;;19.36;77.95;98011.25;5091456;28;20200;-73
2023/05/20 09:54:50;;;;;;;4.97;4.50;;;;;;;18.62;78.06;98003.03;5093336;28;20294;-73
2023/05/20 09:57:17;;;;;;;4.77;4.37;;;;;;;19.51;79.25;98003.06;5094080;28;20310;-73
2023/05/20 09:59:45;;;;;;;5.67;4.50;;;;;;;20.02;75.55;97998.22;5093579;28;20562;-73
2023/05/20 10:02:12;;;;;;;7.07;4.50;;;;;;;19.67;74.09;98001.13;5088439;28;20210;-73
2023/05/20 10:04:43;;;;;;;6.00;4.83;;;;;;;19.12;76.74;97991.34;5083521;28;20204;-73
2023/05/20 10:07:27;;;;;;;6.30;5.10;;;;;;;19.14;76.62;97981.88;5092972;28;20224;-73
2023/05/20 10:10:29;;;;;;;5.03;4.57;;;;;;;18.54;77.52;97975.84;5090244;28;20571;-73
2023/05/20 10:13:38;;;;;;;4.70;4.20;;;;;;;18.77;80.17;97976.06;5018448;28;20204;-73
2023/05/20 10:16:34;;;;;;;5.00;4.47;;;;;;;18.79;77.72;97971.25;5072823;28;20236;-73
2023/05/20 10:19:20;;;;;;;4.70;4.20;;;;;;;19.15;78.93;97969.22;5054998;28;20584;-73
2023/05/20 10:22:00;;;;;;;5.03;4.40;;;;;;;19.48;76.93;97966.69;5070495;28;20290;-73
2023/05/20 10:24:39;;;;;;;5.37;4.80;;;;;;;19.21;77.97;97962.72;5093247;28;20188;-73
2023/05/20 10:27:14;;;;;;;4.57;4.17;;;;;;;19.42;80.13;97967.78;5092648;28;20228;-72
2023/05/20 10:29:51;;;;;;;4.87;4.37;;;;;;;19.28;76.74;97966.78;5092815;28;20241;-72
2023/05/20 10:32:27;;;;;;;4.73;4.30;;;;;;;19.09;75.54;97963.03;5092923;28;20207;-72
2023/05/20 10:34:59;;;;;;;4.87;4.30;;;;;;;18.95;76.29;97967.41;5093114;28;20195;-73
2023/05/20 10:37:32;;;;;;;5.10;4.57;;;;;;;18.88;77.83;97961.53;5074133;28;20194;-73
2023/05/20 10:40:12;;;;;;;4.83;4.40;;;;;;;18.96;76.67;97963.63;5074503;28;20204;-72
2023/05/20 10:42:39;;;;;;;4.90;4.50;;;;;;;18.80;76.49;97963.94;5076442;28;20185;-72
2023/05/20 10:45:07;;;;;;;5.23;4.73;;;;;;;19.08;77.15;97952.53;5076283;28;20208;-72
2023/05/20 10:47:34;;;;;;;4.43;4.07;;;;;;;19.46;77.59;97952.66;5076132;28;20231;-72
2023/05/20 10:50:03;;;;;;;4.50;4.10;;;;;;;19.42;76.88;97957.00;5076395;28;20242;-72
2023/05/20 10:52:34;;;;;;;4.63;4.30;;;;;;;19.34;72.36;97954.91;5076247;28;20282;-72
2023/05/20 10:55:01;;;;;;;4.60;4.17;;;;;;;19.52;75.85;97943.47;5075755;28;20640;-72
2023/05/20 10:57:29;;;;;;;4.53;4.10;;;;;;;19.65;71.43;97944.75;5086064;28;20207;-72
2023/05/20 10:59:56;;;;;;;5.00;4.17;;;;;;;19.89;75.84;97950.25;5096342;28;20230;-72
2023/05/20 11:02:25;;;;;;;4.40;4.00;;;;;;;19.86;73.61;97940.84;5096071;28;20207;-72
2023/05/20 11:04:52;;;;;;;4.30;3.90;;;;;;;20.15;72.72;97944.41;5096290;28;20223;-72
2023/05/20 11:07:30;;;;;;;4.37;4.07;;;;;;;20.26;71.99;97937.81;5080323;28;20225;-72
2023/05/20 11:09:57;;;;;;;5.17;3.67;;;;;;;20.47;72.64;97928.47;5076009;28;20287;-73
2023/05/20 11:12:25;;;;;;;3.97;3.57;;;;;;;20.51;71.17;97929.50;5075607;28;20691;-72
2023/05/20 11:14:51;;;;;;;4.00;3.70;;;;;;;20.53;70.33;97930.00;5075906;28;20213;-72
2023/05/20 11:17:19;;;;;;;4.30;3.83;;;;;;;20.26;67.04;97923.53;5075533;28;20630;-72
2023/05/20 11:19:47;;;;;;;4.33;3.80;;;;;;;20.48;70.54;97916.56;5088748;28;20539;-73
2023/05/20 11:22:13;;;;;;;4.63;4.23;;;;;;;20.40;69.60;97911.00;5096059;28;20215;-73
2023/05/20 11:24:39;;;;;;;4.73;3.90;;;;;;;20.45;68.22;97908.22;5095937;28;20208;-72
2023/05/20 11:27:06;;;;;;;4.20;3.87;;;;;;;19.56;67.42;97908.66;5095877;28;20231;-72
2023/05/20 11:29:33;;;;;;;4.93;3.90;;;;;;;19.99;70.30;97915.09;5093539;28;20207;-73
2023/05/20 11:32:01;;;;;;;4.53;3.90;;;;;;;20.12;68.38;97912.56;5095488;28;20605;-72